Pittsburgh, Pennsylvania
Traffic Map
Current Weather Conditions
Pittsburgh, Pennsylvania
Broken Clouds
Broken Clouds
-8°
Feels Like: -13°
Wind Chill: -13° Ceiling: 8000
Heat Index: -8° Visibility: 10mi
Dew Point: -14° Wind: 8mph
Humidity: 62% Direction: 220° (SW)
Pressure: 30.09in Gusts: 0mph
Raw Report DataKAGC 121553Z 22007KT 10SM BKN080 M08/M14 A3009 RMK AO2 SLP216 T10781139
Traffic Incident Summary
Active as of:
Severity:
Category:
InformationThere was an issue retrieving the traffic information for this location. Please try a different location or try again shortly.
Advertisements
Track Severe Weather on mobile